sensor_id;sensor_type;location;lat;lon;timestamp;temperature;humidity
10536;DHT22;5316;49.538;8.352;2023-06-01T01:19:53;17.40;99.90
10536;DHT22;5316;49.538;8.352;2023-06-01T01:22:38;17.30;99.90
10536;DHT22;5316;49.538;8.352;2023-06-01T01:25:19;17.10;1.00
10536;DHT22;5316;49.538;8.352;2023-06-01T01:28:10;17.10;1.00
10536;DHT22;5316;49.538;8.352;2023-06-01T01:30:42;17.00;1.00
10536;DHT22;5316;49.538;8.352;2023-06-01T01:33:10;17.10;1.00
10536;DHT22;5316;49.538;8.352;2023-06-01T01:35:37;17.10;1.00
10536;DHT22;5316;49.538;8.352;2023-06-01T01:38:05;17.10;1.00
10536;DHT22;5316;49.538;8.352;2023-06-01T01:40:33;17.10;99.90
10536;DHT22;5316;49.538;8.352;2023-06-01T01:43:02;17.10;99.90
10536;DHT22;5316;49.538;8.352;2023-06-01T01:45:29;17.10;99.90
10536;DHT22;5316;49.538;8.352;2023-06-01T01:48:05;17.00;1.00
10536;DHT22;5316;49.538;8.352;2023-06-01T01:50:41;17.00;1.00
10536;DHT22;5316;49.538;8.352;2023-06-01T01:53:11;17.00;1.00
10536;DHT22;5316;49.538;8.352;2023-06-01T01:55:38;16.90;1.00
10536;DHT22;5316;49.538;8.352;2023-06-01T01:58:06;16.90;1.00
10536;DHT22;5316;49.538;8.352;2023-06-01T02:00:34;16.80;1.00
10536;DHT22;5316;49.538;8.352;2023-06-01T02:03:03;16.80;1.00
10536;DHT22;5316;49.538;8.352;2023-06-01T02:05:30;16.80;1.00
10536;DHT22;5316;49.538;8.352;2023-06-01T02:08:07;16.80;1.00
10536;DHT22;5316;49.538;8.352;2023-06-01T03:43:29;15.90;41.10
10536;DHT22;5316;49.538;8.352;2023-06-01T03:45:56;15.80;99.90
10536;DHT22;5316;49.538;8.352;2023-06-01T03:48:23;15.80;99.90
10536;DHT22;5316;49.538;8.352;2023-06-01T03:50:50;15.80;99.90
10536;DHT22;5316;49.538;8.352;2023-06-01T03:53:17;15.90;99.90
10536;DHT22;5316;49.538;8.352;2023-06-01T03:55:44;15.80;99.90
10536;DHT22;5316;49.538;8.352;2023-06-01T03:58:11;15.80;99.90
10536;DHT22;5316;49.538;8.352;2023-06-01T04:00:39;15.90;99.90
10536;DHT22;5316;49.538;8.352;2023-06-01T04:03:06;15.90;99.90
10536;DHT22;5316;49.538;8.352;2023-06-01T04:05:33;15.90;99.90
10536;DHT22;5316;49.538;8.352;2023-06-01T04:08:01;15.90;99.90
10536;DHT22;5316;49.538;8.352;2023-06-01T04:10:28;15.90;99.90
10536;DHT22;5316;49.538;8.352;2023-06-01T04:12:55;15.80;1.00
10536;DHT22;5316;49.538;8.352;2023-06-01T04:15:22;15.90;1.00
10536;DHT22;5316;49.538;8.352;2023-06-01T04:17:50;15.90;1.00
10536;DHT22;5316;49.538;8.352;2023-06-01T04:20:17;15.90;1.00
10536;DHT22;5316;49.538;8.352;2023-06-01T04:22:45;15.90;1.00
10536;DHT22;5316;49.538;8.352;2023-06-01T04:25:14;16.00;1.00
10536;DHT22;5316;49.538;8.352;2023-06-01T04:27:43;16.00;99.90
10536;DHT22;5316;49.538;8.352;2023-06-01T04:30:11;16.10;99.90
10536;DHT22;5316;49.538;8.352;2023-06-01T04:32:39;16.20;99.90
10536;DHT22;5316;49.538;8.352;2023-06-01T04:35:10;16.20;99.90
10536;DHT22;5316;49.538;8.352;2023-06-01T04:37:38;16.20;99.90
10536;DHT22;5316;49.538;8.352;2023-06-01T04:40:06;16.20;99.90
10536;DHT22;5316;49.538;8.352;2023-06-01T04:42:34;16.20;99.90
10536;DHT22;5316;49.538;8.352;2023-06-01T04:45:02;16.20;99.90
10536;DHT22;5316;49.538;8.352;2023-06-01T04:47:30;16.20;99.90
10536;DHT22;5316;49.538;8.352;2023-06-01T04:49:57;16.30;99.90
10536;DHT22;5316;49.538;8.352;2023-06-01T04:52:25;16.30;99.90
10536;DHT22;5316;49.538;8.352;2023-06-01T04:54:52;16.40;99.90
10536;DHT22;5316;49.538;8.352;2023-06-01T04:57:19;16.50;99.90
10536;DHT22;5316;49.538;8.352;2023-06-01T04:59:45;16.60;99.90
10536;DHT22;5316;49.538;8.352;2023-06-01T05:02:12;16.70;99.50
10536;DHT22;5316;49.538;8.352;2023-06-01T05:04:39;16.80;1.00
10536;DHT22;5316;49.538;8.352;2023-06-01T05:07:06;16.90;1.00
10536;DHT22;5316;49.538;8.352;2023-06-01T05:09:34;16.90;1.00
10536;DHT22;5316;49.538;8.352;2023-06-01T05:12:01;16.90;1.00
10536;DHT22;5316;49.538;8.352;2023-06-01T05:14:28;17.00;1.00
10536;DHT22;5316;49.538;8.352;2023-06-01T05:16:56;17.00;1.00
10536;DHT22;5316;49.538;8.352;2023-06-01T05:19:22;17.10;1.00
10536;DHT22;5316;49.538;8.352;2023-06-01T05:21:49;17.10;1.00
10536;DHT22;5316;49.538;8.352;2023-06-01T05:24:17;17.20;99.90
10536;DHT22;5316;49.538;8.352;2023-06-01T05:26:45;17.30;99.90
10536;DHT22;5316;49.538;8.352;2023-06-01T05:29:12;17.40;99.90
10536;DHT22;5316;49.538;8.352;2023-06-01T05:31:39;17.40;99.90
10536;DHT22;5316;49.538;8.352;2023-06-01T05:34:07;17.50;23.80
10536;DHT22;5316;49.538;8.352;2023-06-01T05:36:34;17.60;1.00
10536;DHT22;5316;49.538;8.352;2023-06-01T05:39:01;17.70;1.00
10536;DHT22;5316;49.538;8.352;2023-06-01T05:41:28;17.80;1.00
10536;DHT22;5316;49.538;8.352;2023-06-01T05:43:56;17.90;1.00
10536;DHT22;5316;49.538;8.352;2023-06-01T05:46:23;18.00;1.00
10536;DHT22;5316;49.538;8.352;2023-06-01T05:48:51;18.10;1.00
10536;DHT22;5316;49.538;8.352;2023-06-01T05:51:18;18.10;1.00
10536;DHT22;5316;49.538;8.352;2023-06-01T05:53:45;18.10;99.90
10536;DHT22;5316;49.538;8.352;2023-06-01T05:56:12;18.20;1.00
10536;DHT22;5316;49.538;8.352;2023-06-01T05:58:39;18.20;1.00
10536;DHT22;5316;49.538;8.352;2023-06-01T06:01:07;18.30;99.90
10536;DHT22;5316;49.538;8.352;2023-06-01T06:03:34;18.30;99.90
10536;DHT22;5316;49.538;8.352;2023-06-01T06:06:01;18.40;99.90
10536;DHT22;5316;49.538;8.352;2023-06-01T06:08:28;18.40;99.90
10536;DHT22;5316;49.538;8.352;2023-06-01T06:10:56;18.50;99.90
10536;DHT22;5316;49.538;8.352;2023-06-01T06:13:23;18.50;99.90
10536;DHT22;5316;49.538;8.352;2023-06-01T06:15:50;18.50;99.90
10536;DHT22;5316;49.538;8.352;2023-06-01T06:18:18;18.50;99.90
10536;DHT22;5316;49.538;8.352;2023-06-01T06:20:46;18.50;99.90
10536;DHT22;5316;49.538;8.352;2023-06-01T06:23:13;18.50;99.90
10536;DHT22;5316;49.538;8.352;2023-06-01T06:25:40;18.60;99.90
10536;DHT22;5316;49.538;8.352;2023-06-01T06:28:07;18.70;99.90
10536;DHT22;5316;49.538;8.352;2023-06-01T06:30:34;18.90;99.90
10536;DHT22;5316;49.538;8.352;2023-06-01T06:33:00;19.00;99.90
10536;DHT22;5316;49.538;8.352;2023-06-01T06:35:29;19.20;99.90
10536;DHT22;5316;49.538;8.352;2023-06-01T06:37:56;19.30;99.90
10536;DHT22;5316;49.538;8.352;2023-06-01T06:40:23;19.30;28.90
10536;DHT22;5316;49.538;8.352;2023-06-01T06:42:50;19.40;48.90
10536;DHT22;5316;49.538;8.352;2023-06-01T06:45:17;19.40;11.60
10536;DHT22;5316;49.538;8.352;2023-06-01T06:47:44;19.50;1.00
10536;DHT22;5316;49.538;8.352;2023-06-01T06:50:12;19.50;1.00
10536;DHT22;5316;49.538;8.352;2023-06-01T06:52:40;19.60;1.00
10536;DHT22;5316;49.538;8.352;2023-06-01T06:55:08;19.70;1.00
10536;DHT22;5316;49.538;8.352;2023-06-01T06:57:34;19.80;1.00
10536;DHT22;5316;49.538;8.352;2023-06-01T07:00:01;19.80;1.00
10536;DHT22;5316;49.538;8.352;2023-06-01T07:02:30;19.90;1.00
10536;DHT22;5316;49.538;8.352;2023-06-01T07:04:58;20.00;1.00
10536;DHT22;5316;49.538;8.352;2023-06-01T07:07:25;20.10;1.00
10536;DHT22;5316;49.538;8.352;2023-06-01T07:09:54;20.10;1.00
10536;DHT22;5316;49.538;8.352;2023-06-01T07:12:21;20.20;1.00
10536;DHT22;5316;49.538;8.352;2023-06-01T07:14:48;20.30;1.00
10536;DHT22;5316;49.538;8.352;2023-06-01T07:17:15;20.40;1.00
10536;DHT22;5316;49.538;8.352;2023-06-01T07:19:42;20.50;1.00
10536;DHT22;5316;49.538;8.352;2023-06-01T07:22:08;20.50;1.00
10536;DHT22;5316;49.538;8.352;2023-06-01T07:24:35;20.50;1.00
10536;DHT22;5316;49.538;8.352;2023-06-01T07:27:04;20.50;1.00
10536;DHT22;5316;49.538;8.352;2023-06-01T07:29:31;20.50;1.00
10536;DHT22;5316;49.538;8.352;2023-06-01T07:31:58;20.60;1.00
10536;DHT22;5316;49.538;8.352;2023-06-01T07:34:26;20.60;1.00
10536;DHT22;5316;49.538;8.352;2023-06-01T07:36:53;20.70;1.00
10536;DHT22;5316;49.538;8.352;2023-06-01T07:39:20;20.70;1.00
10536;DHT22;5316;49.538;8.352;2023-06-01T07:41:47;20.80;1.00
10536;DHT22;5316;49.538;8.352;2023-06-01T07:44:17;20.90;1.00
10536;DHT22;5316;49.538;8.352;2023-06-01T07:46:46;20.90;1.00
10536;DHT22;5316;49.538;8.352;2023-06-01T07:49:13;21.00;1.00
10536;DHT22;5316;49.538;8.352;2023-06-01T07:51:40;21.00;1.00
10536;DHT22;5316;49.538;8.352;2023-06-01T07:54:08;21.10;1.00
10536;DHT22;5316;49.538;8.352;2023-06-01T07:56:35;21.20;1.00
10536;DHT22;5316;49.538;8.352;2023-06-01T07:59:02;21.30;99.90
10536;DHT22;5316;49.538;8.352;2023-06-01T08:01:30;21.30;99.90
10536;DHT22;5316;49.538;8.352;2023-06-01T08:03:58;21.20;1.00
10536;DHT22;5316;49.538;8.352;2023-06-01T08:06:25;21.40;99.90
10536;DHT22;5316;49.538;8.352;2023-06-01T08:08:52;21.40;99.90
10536;DHT22;5316;49.538;8.352;2023-06-01T08:11:19;21.50;99.90
10536;DHT22;5316;49.538;8.352;2023-06-01T08:13:47;21.40;99.90
10536;DHT22;5316;49.538;8.352;2023-06-01T08:16:14;21.50;99.90
10536;DHT22;5316;49.538;8.352;2023-06-01T08:18:42;21.60;99.90
10536;DHT22;5316;49.538;8.352;2023-06-01T08:21:09;21.60;99.90
10536;DHT22;5316;49.538;8.352;2023-06-01T08:23:36;21.70;99.90
10536;DHT22;5316;49.538;8.352;2023-06-01T08:26:05;21.80;99.90
10536;DHT22;5316;49.538;8.352;2023-06-01T08:28:31;21.80;99.90
10536;DHT22;5316;49.538;8.352;2023-06-01T08:31:01;21.90;99.90
10536;DHT22;5316;49.538;8.352;2023-06-01T08:33:28;21.90;99.90
10536;DHT22;5316;49.538;8.352;2023-06-01T08:35:56;21.90;99.90
10536;DHT22;5316;49.538;8.352;2023-06-01T08:38:23;21.90;99.90
10536;DHT22;5316;49.538;8.352;2023-06-01T08:40:55;22.00;99.90
10536;DHT22;5316;49.538;8.352;2023-06-01T08:43:26;22.10;99.90
10536;DHT22;5316;49.538;8.352;2023-06-01T08:45:55;22.20;99.90
10536;DHT22;5316;49.538;8.352;2023-06-01T08:48:23;22.20;99.90
10536;DHT22;5316;49.538;8.352;2023-06-01T08:50:51;22.30;99.90
10536;DHT22;5316;49.538;8.352;2023-06-01T08:53:20;22.40;99.90
10536;DHT22;5316;49.538;8.352;2023-06-01T08:55:51;22.50;99.90
10536;DHT22;5316;49.538;8.352;2023-06-01T08:58:18;22.50;99.90
10536;DHT22;5316;49.538;8.352;2023-06-01T09:00:47;22.60;99.90
10536;DHT22;5316;49.538;8.352;2023-06-01T09:03:15;22.60;85.00
10536;DHT22;5316;49.538;8.352;2023-06-01T09:05:42;22.50;85.10
10536;DHT22;5316;49.538;8.352;2023-06-01T09:08:09;22.60;85.90
10536;DHT22;5316;49.538;8.352;2023-06-01T09:10:37;22.60;83.50
10536;DHT22;5316;49.538;8.352;2023-06-01T09:13:04;22.70;75.70
10536;DHT22;5316;49.538;8.352;2023-06-01T09:15:32;22.70;60.00
10536;DHT22;5316;49.538;8.352;2023-06-01T09:18:06;22.80;80.00
10536;DHT22;5316;49.538;8.352;2023-06-01T09:20:35;22.90;95.80
10536;DHT22;5316;49.538;8.352;2023-06-01T09:23:03;22.90;99.90
10536;DHT22;5316;49.538;8.352;2023-06-01T09:25:31;23.00;99.90
10536;DHT22;5316;49.538;8.352;2023-06-01T09:28:01;23.10;90.90
10536;DHT22;5316;49.538;8.352;2023-06-01T09:30:38;23.20;70.20
10536;DHT22;5316;49.538;8.352;2023-06-01T09:33:13;23.30;63.70
10536;DHT22;5316;49.538;8.352;2023-06-01T09:35:42;23.40;56.80
10536;DHT22;5316;49.538;8.352;2023-06-01T09:58:56;24.10;1.00
10536;DHT22;5316;49.538;8.352;2023-06-01T10:01:24;24.30;1.00
10536;DHT22;5316;49.538;8.352;2023-06-01T10:03:53;24.30;1.00
10536;DHT22;5316;49.538;8.352;2023-06-01T10:06:22;24.40;1.00
10536;DHT22;5316;49.538;8.352;2023-06-01T10:08:49;24.40;1.00
10536;DHT22;5316;49.538;8.352;2023-06-01T10:11:17;24.50;1.00
10536;DHT22;5316;49.538;8.352;2023-06-01T10:13:45;24.50;1.00
10536;DHT22;5316;49.538;8.352;2023-06-01T10:16:13;24.50;1.00
10536;DHT22;5316;49.538;8.352;2023-06-01T10:18:41;24.60;1.00
10536;DHT22;5316;49.538;8.352;2023-06-01T10:21:08;24.60;1.00
10536;DHT22;5316;49.538;8.352;2023-06-01T10:23:36;24.60;1.00
10536;DHT22;5316;49.538;8.352;2023-06-01T10:26:08;24.80;1.00
10536;DHT22;5316;49.538;8.352;2023-06-01T10:28:37;24.80;1.00
10536;DHT22;5316;49.538;8.352;2023-06-01T10:31:34;24.80;1.00
10536;DHT22;5316;49.538;8.352;2023-06-01T10:34:01;24.80;1.00
10536;DHT22;5316;49.538;8.352;2023-06-01T10:39:29;25.00;1.00
10536;DHT22;5316;49.538;8.352;2023-06-01T10:42:34;25.10;1.00
10536;DHT22;5316;49.538;8.352;2023-06-01T10:44:46;25.10;1.00
10536;DHT22;5316;49.538;8.352;2023-06-01T10:47:45;25.00;1.00
10536;DHT22;5316;49.538;8.352;2023-06-01T10:50:17;25.00;1.00
10536;DHT22;5316;49.538;8.352;2023-06-01T10:52:44;25.00;1.00
10536;DHT22;5316;49.538;8.352;2023-06-01T10:55:35;25.20;1.00
10536;DHT22;5316;49.538;8.352;2023-06-01T10:58:31;25.20;1.00
10536;DHT22;5316;49.538;8.352;2023-06-01T11:00:58;25.20;1.00
10536;DHT22;5316;49.538;8.352;2023-06-01T11:03:45;25.20;1.00
10536;DHT22;5316;49.538;8.352;2023-06-01T11:06:28;25.20;1.00
10536;DHT22;5316;49.538;8.352;2023-06-01T11:08:59;25.10;1.00
10536;DHT22;5316;49.538;8.352;2023-06-01T11:11:57;25.20;1.00
10536;DHT22;5316;49.538;8.352;2023-06-01T11:14:27;25.20;1.00
10536;DHT22;5316;49.538;8.352;2023-06-01T11:16:56;25.30;1.00
10536;DHT22;5316;49.538;8.352;2023-06-01T11:19:59;25.40;1.00
10536;DHT22;5316;49.538;8.352;2023-06-01T11:22:35;25.60;1.00
10536;DHT22;5316;49.538;8.352;2023-06-01T11:25:23;25.70;1.00
10536;DHT22;5316;49.538;8.352;2023-06-01T11:27:55;25.80;1.00
10536;DHT22;5316;49.538;8.352;2023-06-01T11:30:23;25.90;1.00
10536;DHT22;5316;49.538;8.352;2023-06-01T11:32:52;26.00;1.00
10536;DHT22;5316;49.538;8.352;2023-06-01T11:35:58;26.10;1.00
10536;DHT22;5316;49.538;8.352;2023-06-01T11:38:35;26.10;1.00
10536;DHT22;5316;49.538;8.352;2023-06-01T11:41:05;26.20;1.00
10536;DHT22;5316;49.538;8.352;2023-06-01T11:43:34;26.30;1.00
10536;DHT22;5316;49.538;8.352;2023-06-01T11:46:18;26.50;1.00
10536;DHT22;5316;49.538;8.352;2023-06-01T11:49:00;26.50;1.00
10536;DHT22;5316;49.538;8.352;2023-06-01T11:51:37;26.50;1.00
10536;DHT22;5316;49.538;8.352;2023-06-01T11:54:24;26.50;1.00
10536;DHT22;5316;49.538;8.352;2023-06-01T11:57:07;26.50;1.00
10536;DHT22;5316;49.538;8.352;2023-06-01T11:59:38;26.70;1.00
10536;DHT22;5316;49.538;8.352;2023-06-01T12:02:24;26.80;1.00
10536;DHT22;5316;49.538;8.352;2023-06-01T12:05:43;26.90;1.00
10536;DHT22;5316;49.538;8.352;2023-06-01T12:11:44;26.80;1.00
10536;DHT22;5316;49.538;8.352;2023-06-01T12:18:02;26.90;1.00
10536;DHT22;5316;49.538;8.352;2023-06-01T12:21:12;27.10;1.00
10536;DHT22;5316;49.538;8.352;2023-06-01T12:44:21;27.50;1.00
10536;DHT22;5316;49.538;8.352;2023-06-01T12:53:19;28.10;1.00
10536;DHT22;5316;49.538;8.352;2023-06-01T12:56:20;28.40;1.00
10536;DHT22;5316;49.538;8.352;2023-06-01T13:33:39;30.80;1.00
10536;DHT22;5316;49.538;8.352;2023-06-01T13:36:24;30.90;1.00
10536;DHT22;5316;49.538;8.352;2023-06-01T13:39:01;31.10;1.00
10536;DHT22;5316;49.538;8.352;2023-06-01T13:41:45;31.20;1.00
10536;DHT22;5316;49.538;8.352;2023-06-01T13:44:33;31.40;1.00
10536;DHT22;5316;49.538;8.352;2023-06-01T13:47:15;31.60;1.00
10536;DHT22;5316;49.538;8.352;2023-06-01T13:50:03;31.80;1.00
10536;DHT22;5316;49.538;8.352;2023-06-01T13:52:38;32.00;1.00
10536;DHT22;5316;49.538;8.352;2023-06-01T13:55:31;32.40;1.00
10536;DHT22;5316;49.538;8.352;2023-06-01T13:58:19;32.50;1.00
10536;DHT22;5316;49.538;8.352;2023-06-01T14:01:42;32.40;1.00
10536;DHT22;5316;49.538;8.352;2023-06-01T14:10:32;33.00;1.00
10536;DHT22;5316;49.538;8.352;2023-06-01T14:13:39;32.80;1.00
10536;DHT22;5316;49.538;8.352;2023-06-01T14:16:35;33.00;1.00
10536;DHT22;5316;49.538;8.352;2023-06-01T14:19:36;33.50;1.00
10536;DHT22;5316;49.538;8.352;2023-06-01T14:22:13;34.20;1.00
10536;DHT22;5316;49.538;8.352;2023-06-01T14:24:53;34.50;1.00
10536;DHT22;5316;49.538;8.352;2023-06-01T14:27:38;34.50;1.00
10536;DHT22;5316;49.538;8.352;2023-06-01T14:30:45;35.00;1.00
10536;DHT22;5316;49.538;8.352;2023-06-01T14:33:34;35.40;1.00
10536;DHT22;5316;49.538;8.352;2023-06-01T14:39:42;35.20;1.00
10536;DHT22;5316;49.538;8.352;2023-06-01T14:53:41;37.10;1.00
10536;DHT22;5316;49.538;8.352;2023-06-01T15:00:22;36.80;1.00
10536;DHT22;5316;49.538;8.352;2023-06-01T15:06:55;37.60;1.00
10536;DHT22;5316;49.538;8.352;2023-06-01T15:33:40;38.40;1.00
10536;DHT22;5316;49.538;8.352;2023-06-01T15:36:46;38.60;1.00
10536;DHT22;5316;49.538;8.352;2023-06-01T15:39:55;38.90;1.00
10536;DHT22;5316;49.538;8.352;2023-06-01T15:43:00;39.30;1.00
10536;DHT22;5316;49.538;8.352;2023-06-01T15:46:00;39.20;1.00
10536;DHT22;5316;49.538;8.352;2023-06-01T15:48:30;39.20;1.00
10536;DHT22;5316;49.538;8.352;2023-06-01T15:51:02;39.10;1.00
10536;DHT22;5316;49.538;8.352;2023-06-01T15:53:30;38.80;1.00
10536;DHT22;5316;49.538;8.352;2023-06-01T15:56:13;38.70;1.00
10536;DHT22;5316;49.538;8.352;2023-06-01T15:58:58;38.80;1.00
10536;DHT22;5316;49.538;8.352;2023-06-01T16:01:37;38.90;1.00
10536;DHT22;5316;49.538;8.352;2023-06-01T16:04:49;39.20;1.00
10536;DHT22;5316;49.538;8.352;2023-06-01T16:10:34;39.30;1.00
10536;DHT22;5316;49.538;8.352;2023-06-01T16:13:03;39.60;1.00
10536;DHT22;5316;49.538;8.352;2023-06-01T16:15:31;39.50;1.00
10536;DHT22;5316;49.538;8.352;2023-06-01T16:18:00;39.40;1.00
10536;DHT22;5316;49.538;8.352;2023-06-01T16:20:29;39.60;1.00
10536;DHT22;5316;49.538;8.352;2023-06-01T16:22:56;39.60;1.00
10536;DHT22;5316;49.538;8.352;2023-06-01T16:25:25;39.40;1.00
10536;DHT22;5316;49.538;8.352;2023-06-01T16:27:52;39.20;1.00
10536;DHT22;5316;49.538;8.352;2023-06-01T16:30:35;38.80;1.00
10536;DHT22;5316;49.538;8.352;2023-06-01T16:33:08;38.70;1.00
10536;DHT22;5316;49.538;8.352;2023-06-01T16:35:50;38.40;1.00
10536;DHT22;5316;49.538;8.352;2023-06-01T16:38:24;38.10;1.00
10536;DHT22;5316;49.538;8.352;2023-06-01T16:40:57;37.80;1.00
10536;DHT22;5316;49.538;8.352;2023-06-01T16:43:30;37.90;1.00
10536;DHT22;5316;49.538;8.352;2023-06-01T16:46:07;38.10;1.00
10536;DHT22;5316;49.538;8.352;2023-06-01T16:48:44;38.10;1.00
10536;DHT22;5316;49.538;8.352;2023-06-01T16:51:18;38.00;1.00
10536;DHT22;5316;49.538;8.352;2023-06-01T16:53:57;37.80;1.00
10536;DHT22;5316;49.538;8.352;2023-06-01T16:56:32;37.90;1.00
10536;DHT22;5316;49.538;8.352;2023-06-01T16:59:08;37.90;1.00
10536;DHT22;5316;49.538;8.352;2023-06-01T17:01:45;38.10;1.00
10536;DHT22;5316;49.538;8.352;2023-06-01T17:04:39;38.40;1.00
10536;DHT22;5316;49.538;8.352;2023-06-01T17:10:18;38.40;1.00
10536;DHT22;5316;49.538;8.352;2023-06-01T17:12:59;38.30;1.00
10536;DHT22;5316;49.538;8.352;2023-06-01T17:15:46;38.50;1.00
10536;DHT22;5316;49.538;8.352;2023-06-01T17:22:01;36.90;1.00
10536;DHT22;5316;49.538;8.352;2023-06-01T17:24:31;35.50;1.00
10536;DHT22;5316;49.538;8.352;2023-06-01T17:49:41;30.50;1.00
10536;DHT22;5316;49.538;8.352;2023-06-01T17:52:11;30.50;1.00
10536;DHT22;5316;49.538;8.352;2023-06-01T17:54:38;30.20;1.00
10536;DHT22;5316;49.538;8.352;2023-06-01T17:57:06;30.10;1.00
10536;DHT22;5316;49.538;8.352;2023-06-01T17:59:36;29.90;1.00
10536;DHT22;5316;49.538;8.352;2023-06-01T18:02:04;30.00;1.00
10536;DHT22;5316;49.538;8.352;2023-06-01T18:04:34;30.30;1.00
10536;DHT22;5316;49.538;8.352;2023-06-01T18:07:09;30.50;1.00
10536;DHT22;5316;49.538;8.352;2023-06-01T18:09:36;30.20;1.00
10536;DHT22;5316;49.538;8.352;2023-06-01T18:12:05;29.70;1.00
10536;DHT22;5316;49.538;8.352;2023-06-01T18:14:32;29.50;1.00
10536;DHT22;5316;49.538;8.352;2023-06-01T18:17:41;29.30;1.00
10536;DHT22;5316;49.538;8.352;2023-06-01T18:20:13;29.20;1.00
10536;DHT22;5316;49.538;8.352;2023-06-01T18:22:43;28.50;1.00
10536;DHT22;5316;49.538;8.352;2023-06-01T18:25:13;28.40;1.00
10536;DHT22;5316;49.538;8.352;2023-06-01T18:27:42;28.40;1.00
10536;DHT22;5316;49.538;8.352;2023-06-01T18:30:11;28.70;1.00
10536;DHT22;5316;49.538;8.352;2023-06-01T18:32:38;28.80;1.00
10536;DHT22;5316;49.538;8.352;2023-06-01T18:35:07;28.70;1.00
10536;DHT22;5316;49.538;8.352;2023-06-01T18:37:50;28.60;1.00
10536;DHT22;5316;49.538;8.352;2023-06-01T18:40:20;28.20;1.00
10536;DHT22;5316;49.538;8.352;2023-06-01T18:42:48;27.70;1.00
10536;DHT22;5316;49.538;8.352;2023-06-01T18:45:22;27.30;1.00
10536;DHT22;5316;49.538;8.352;2023-06-01T18:47:49;26.90;1.00
10536;DHT22;5316;49.538;8.352;2023-06-01T18:50:17;26.70;1.00
10536;DHT22;5316;49.538;8.352;2023-06-01T18:52:46;26.40;1.00
10536;DHT22;5316;49.538;8.352;2023-06-01T18:55:15;26.30;1.00
10536;DHT22;5316;49.538;8.352;2023-06-01T18:57:43;26.00;1.00
10536;DHT22;5316;49.538;8.352;2023-06-01T19:00:14;25.80;1.00
10536;DHT22;5316;49.538;8.352;2023-06-01T19:02:46;25.50;1.00
10536;DHT22;5316;49.538;8.352;2023-06-01T19:05:20;25.40;1.00
10536;DHT22;5316;49.538;8.352;2023-06-01T19:07:56;25.10;1.00
10536;DHT22;5316;49.538;8.352;2023-06-01T19:10:55;24.80;1.00
10536;DHT22;5316;49.538;8.352;2023-06-01T19:13:38;24.80;1.00
10536;DHT22;5316;49.538;8.352;2023-06-01T19:16:12;24.50;1.00
10536;DHT22;5316;49.538;8.352;2023-06-01T19:18:42;24.50;1.00
10536;DHT22;5316;49.538;8.352;2023-06-01T19:21:16;24.40;1.00
10536;DHT22;5316;49.538;8.352;2023-06-01T19:23:46;24.30;1.00
10536;DHT22;5316;49.538;8.352;2023-06-01T19:26:16;24.30;1.00
10536;DHT22;5316;49.538;8.352;2023-06-01T19:28:54;24.20;1.00
10536;DHT22;5316;49.538;8.352;2023-06-01T19:31:26;24.00;1.00
10536;DHT22;5316;49.538;8.352;2023-06-01T19:33:55;23.90;1.00
10536;DHT22;5316;49.538;8.352;2023-06-01T19:36:53;23.90;1.00
10536;DHT22;5316;49.538;8.352;2023-06-01T19:39:28;23.70;1.00
10536;DHT22;5316;49.538;8.352;2023-06-01T19:42:24;23.70;1.00
10536;DHT22;5316;49.538;8.352;2023-06-01T19:44:57;23.60;1.00
10536;DHT22;5316;49.538;8.352;2023-06-01T19:47:39;23.50;1.00
10536;DHT22;5316;49.538;8.352;2023-06-01T19:50:37;23.30;1.00
10536;DHT22;5316;49.538;8.352;2023-06-01T19:53:14;23.20;1.00
10536;DHT22;5316;49.538;8.352;2023-06-01T19:55:44;23.10;1.00
10536;DHT22;5316;49.538;8.352;2023-06-01T19:58:14;23.00;1.00
10536;DHT22;5316;49.538;8.352;2023-06-01T20:00:41;22.90;1.00
10536;DHT22;5316;49.538;8.352;2023-06-01T20:03:11;22.70;1.00
10536;DHT22;5316;49.538;8.352;2023-06-01T20:05:51;22.50;1.00
10536;DHT22;5316;49.538;8.352;2023-06-01T20:08:22;22.50;1.00
10536;DHT22;5316;49.538;8.352;2023-06-01T20:10:50;22.40;1.00
10536;DHT22;5316;49.538;8.352;2023-06-01T20:13:31;22.30;1.00
10536;DHT22;5316;49.538;8.352;2023-06-01T20:15:59;22.20;1.00
10536;DHT22;5316;49.538;8.352;2023-06-01T20:18:40;22.10;1.00
10536;DHT22;5316;49.538;8.352;2023-06-01T20:21:09;22.00;1.00
10536;DHT22;5316;49.538;8.352;2023-06-01T20:23:36;21.80;1.00
10536;DHT22;5316;49.538;8.352;2023-06-01T20:26:05;21.70;1.00
10536;DHT22;5316;49.538;8.352;2023-06-01T20:28:45;21.70;1.00
10536;DHT22;5316;49.538;8.352;2023-06-01T20:31:13;21.60;1.00
10536;DHT22;5316;49.538;8.352;2023-06-01T20:33:42;21.50;1.00
10536;DHT22;5316;49.538;8.352;2023-06-01T20:36:11;21.40;1.00
10536;DHT22;5316;49.538;8.352;2023-06-01T20:38:41;21.40;1.00
10536;DHT22;5316;49.538;8.352;2023-06-01T20:41:11;21.30;1.00
10536;DHT22;5316;49.538;8.352;2023-06-01T20:43:39;21.30;1.00
10536;DHT22;5316;49.538;8.352;2023-06-01T20:46:09;21.10;1.00
10536;DHT22;5316;49.538;8.352;2023-06-01T20:48:43;21.20;1.00
10536;DHT22;5316;49.538;8.352;2023-06-01T20:51:21;21.10;1.00
10536;DHT22;5316;49.538;8.352;2023-06-01T20:53:51;21.10;1.00
10536;DHT22;5316;49.538;8.352;2023-06-01T20:56:23;21.00;1.00
10536;DHT22;5316;49.538;8.352;2023-06-01T20:58:52;21.00;1.00
10536;DHT22;5316;49.538;8.352;2023-06-01T21:01:25;20.90;1.00
10536;DHT22;5316;49.538;8.352;2023-06-01T21:03:53;21.00;1.00
10536;DHT22;5316;49.538;8.352;2023-06-01T21:06:20;21.00;1.00
10536;DHT22;5316;49.538;8.352;2023-06-01T21:08:47;20.90;1.00
10536;DHT22;5316;49.538;8.352;2023-06-01T21:11:14;20.90;1.00
10536;DHT22;5316;49.538;8.352;2023-06-01T21:13:41;20.90;1.00
10536;DHT22;5316;49.538;8.352;2023-06-01T21:16:08;20.90;1.00
10536;DHT22;5316;49.538;8.352;2023-06-01T21:18:37;20.80;1.00
10536;DHT22;5316;49.538;8.352;2023-06-01T21:28:12;20.70;1.00
10536;DHT22;5316;49.538;8.352;2023-06-01T21:34:47;20.40;1.00
10536;DHT22;5316;49.538;8.352;2023-06-01T21:37:38;20.40;7.50
10536;DHT22;5316;49.538;8.352;2023-06-01T21:41:10;20.20;29.50
10536;DHT22;5316;49.538;8.352;2023-06-01T21:48:04;20.00;94.30
10536;DHT22;5316;49.538;8.352;2023-06-01T21:54:34;19.70;99.90
10536;DHT22;5316;49.538;8.352;2023-06-01T21:57:12;19.50;99.90
10536;DHT22;5316;49.538;8.352;2023-06-01T21:59:38;19.50;99.90
10536;DHT22;5316;49.538;8.352;2023-06-01T22:02:05;19.50;99.90
10536;DHT22;5316;49.538;8.352;2023-06-01T22:04:32;19.60;99.90
10536;DHT22;5316;49.538;8.352;2023-06-01T22:06:59;19.60;99.90
10536;DHT22;5316;49.538;8.352;2023-06-01T22:09:27;19.60;99.90
10536;DHT22;5316;49.538;8.352;2023-06-01T22:11:53;19.50;99.90
10536;DHT22;5316;49.538;8.352;2023-06-01T22:14:20;19.50;99.90
10536;DHT22;5316;49.538;8.352;2023-06-01T22:16:47;19.50;99.90
10536;DHT22;5316;49.538;8.352;2023-06-01T22:19:14;19.50;99.90
10536;DHT22;5316;49.538;8.352;2023-06-01T22:21:40;19.40;99.90
10536;DHT22;5316;49.538;8.352;2023-06-01T22:24:07;19.40;99.90
10536;DHT22;5316;49.538;8.352;2023-06-01T22:26:35;19.30;99.90
10536;DHT22;5316;49.538;8.352;2023-06-01T22:29:02;19.30;99.90
10536;DHT22;5316;49.538;8.352;2023-06-01T22:31:29;19.30;99.90
10536;DHT22;5316;49.538;8.352;2023-06-01T22:33:56;19.20;99.90
10536;DHT22;5316;49.538;8.352;2023-06-01T22:36:23;19.20;1.00
10536;DHT22;5316;49.538;8.352;2023-06-01T22:38:49;19.10;1.00
10536;DHT22;5316;49.538;8.352;2023-06-01T22:41:16;19.10;1.00
10536;DHT22;5316;49.538;8.352;2023-06-01T22:43:47;19.10;1.00